sensor_id;sensor_type;location;lat;lon;timestamp;P1;durP1;ratioP1;P2;durP2;ratioP2
787;SDS011;16074;42.708;23.312;2023-03-19T00:00:31;19.92;;;13.68;;
787;SDS011;16074;42.708;23.312;2023-03-19T00:03:00;14.13;;;12.45;;
787;SDS011;16074;42.708;23.312;2023-03-19T00:05:28;14.90;;;13.38;;
787;SDS011;16074;42.708;23.312;2023-03-19T00:07:58;15.98;;;13.52;;
787;SDS011;16074;42.708;23.312;2023-03-19T00:10:26;22.50;;;14.93;;
787;SDS011;16074;42.708;23.312;2023-03-19T00:12:54;23.50;;;15.57;;
787;SDS011;16074;42.708;23.312;2023-03-19T00:15:22;20.13;;;16.00;;
787;SDS011;16074;42.708;23.312;2023-03-19T00:17:51;22.55;;;17.23;;
787;SDS011;16074;42.708;23.312;2023-03-19T00:20:19;23.13;;;17.73;;
787;SDS011;16074;42.708;23.312;2023-03-19T00:22:48;24.77;;;17.40;;
787;SDS011;16074;42.708;23.312;2023-03-19T00:25:17;22.35;;;16.88;;
787;SDS011;16074;42.708;23.312;2023-03-19T00:27:46;25.63;;;16.63;;
787;SDS011;16074;42.708;23.312;2023-03-19T00:30:14;20.00;;;16.17;;
787;SDS011;16074;42.708;23.312;2023-03-19T00:32:43;22.23;;;15.77;;
787;SDS011;16074;42.708;23.312;2023-03-19T00:35:11;22.70;;;15.65;;
787;SDS011;16074;42.708;23.312;2023-03-19T00:37:39;20.30;;;16.30;;
787;SDS011;16074;42.708;23.312;2023-03-19T00:40:09;19.23;;;17.23;;
787;SDS011;16074;42.708;23.312;2023-03-19T00:42:39;18.35;;;16.23;;
787;SDS011;16074;42.708;23.312;2023-03-19T00:45:10;19.40;;;13.90;;
787;SDS011;16074;42.708;23.312;2023-03-19T00:47:39;20.10;;;16.10;;
787;SDS011;16074;42.708;23.312;2023-03-19T00:50:08;20.40;;;15.35;;
787;SDS011;16074;42.708;23.312;2023-03-19T00:52:37;19.45;;;15.98;;
787;SDS011;16074;42.708;23.312;2023-03-19T00:55:06;20.60;;;14.65;;
787;SDS011;16074;42.708;23.312;2023-03-19T00:57:35;20.05;;;14.68;;
787;SDS011;16074;42.708;23.312;2023-03-19T01:00:06;19.77;;;14.95;;
787;SDS011;16074;42.708;23.312;2023-03-19T01:02:36;19.17;;;16.02;;
787;SDS011;16074;42.708;23.312;2023-03-19T01:05:05;22.40;;;17.27;;
787;SDS011;16074;42.708;23.312;2023-03-19T01:07:35;24.42;;;16.73;;
787;SDS011;16074;42.708;23.312;2023-03-19T01:10:04;20.15;;;16.10;;
787;SDS011;16074;42.708;23.312;2023-03-19T01:12:33;20.55;;;17.63;;
787;SDS011;16074;42.708;23.312;2023-03-19T01:15:02;24.10;;;19.38;;
787;SDS011;16074;42.708;23.312;2023-03-19T01:17:34;25.58;;;21.48;;
787;SDS011;16074;42.708;23.312;2023-03-19T01:20:02;23.73;;;19.95;;
787;SDS011;16074;42.708;23.312;2023-03-19T01:22:35;30.77;;;24.33;;
787;SDS011;16074;42.708;23.312;2023-03-19T01:25:04;37.10;;;25.40;;
787;SDS011;16074;42.708;23.312;2023-03-19T01:27:33;35.15;;;25.83;;
787;SDS011;16074;42.708;23.312;2023-03-19T01:30:03;37.78;;;26.05;;
787;SDS011;16074;42.708;23.312;2023-03-19T01:33:06;28.42;;;22.90;;
787;SDS011;16074;42.708;23.312;2023-03-19T01:35:55;32.00;;;24.70;;
787;SDS011;16074;42.708;23.312;2023-03-19T01:38:30;29.73;;;22.35;;
787;SDS011;16074;42.708;23.312;2023-03-19T01:41:02;26.48;;;22.00;;
787;SDS011;16074;42.708;23.312;2023-03-19T01:43:31;29.02;;;22.13;;
787;SDS011;16074;42.708;23.312;2023-03-19T01:46:12;41.60;;;23.70;;
787;SDS011;16074;42.708;23.312;2023-03-19T01:49:14;24.02;;;21.38;;
787;SDS011;16074;42.708;23.312;2023-03-19T01:51:52;27.33;;;21.98;;
787;SDS011;16074;42.708;23.312;2023-03-19T01:54:28;23.10;;;19.73;;
787;SDS011;16074;42.708;23.312;2023-03-19T01:57:13;27.73;;;22.25;;
787;SDS011;16074;42.708;23.312;2023-03-19T01:59:52;26.17;;;22.35;;
787;SDS011;16074;42.708;23.312;2023-03-19T02:02:41;28.48;;;20.70;;
787;SDS011;16074;42.708;23.312;2023-03-19T02:05:19;24.65;;;20.58;;
787;SDS011;16074;42.708;23.312;2023-03-19T02:07:55;28.70;;;20.35;;
787;SDS011;16074;42.708;23.312;2023-03-19T02:10:26;20.85;;;16.30;;
787;SDS011;16074;42.708;23.312;2023-03-19T02:12:56;21.58;;;17.23;;
787;SDS011;16074;42.708;23.312;2023-03-19T02:15:24;23.90;;;19.40;;
787;SDS011;16074;42.708;23.312;2023-03-19T02:17:53;20.05;;;17.05;;
787;SDS011;16074;42.708;23.312;2023-03-19T02:20:23;21.05;;;15.35;;
787;SDS011;16074;42.708;23.312;2023-03-19T02:22:57;20.98;;;16.52;;
787;SDS011;16074;42.708;23.312;2023-03-19T02:25:32;18.35;;;15.05;;
787;SDS011;16074;42.708;23.312;2023-03-19T02:28:07;17.95;;;15.60;;
787;SDS011;16074;42.708;23.312;2023-03-19T02:30:37;20.60;;;14.90;;
787;SDS011;16074;42.708;23.312;2023-03-19T02:33:10;19.52;;;14.82;;
787;SDS011;16074;42.708;23.312;2023-03-19T02:35:39;22.98;;;15.90;;
787;SDS011;16074;42.708;23.312;2023-03-19T02:38:09;16.50;;;14.27;;
787;SDS011;16074;42.708;23.312;2023-03-19T02:40:40;17.42;;;13.65;;
787;SDS011;16074;42.708;23.312;2023-03-19T02:43:14;14.80;;;12.48;;
787;SDS011;16074;42.708;23.312;2023-03-19T02:45:42;17.40;;;13.82;;
787;SDS011;16074;42.708;23.312;2023-03-19T02:48:11;17.27;;;13.57;;
787;SDS011;16074;42.708;23.312;2023-03-19T02:50:39;21.45;;;13.73;;
787;SDS011;16074;42.708;23.312;2023-03-19T02:53:07;16.55;;;12.95;;
787;SDS011;16074;42.708;23.312;2023-03-19T02:55:36;13.73;;;12.32;;
787;SDS011;16074;42.708;23.312;2023-03-19T02:58:04;16.92;;;13.50;;
787;SDS011;16074;42.708;23.312;2023-03-19T03:00:33;15.57;;;13.25;;
787;SDS011;16074;42.708;23.312;2023-03-19T03:03:03;13.98;;;12.02;;
787;SDS011;16074;42.708;23.312;2023-03-19T03:05:33;14.88;;;12.07;;
787;SDS011;16074;42.708;23.312;2023-03-19T03:08:01;14.77;;;12.18;;
787;SDS011;16074;42.708;23.312;2023-03-19T03:10:30;14.45;;;12.15;;
787;SDS011;16074;42.708;23.312;2023-03-19T03:12:59;17.70;;;12.57;;
787;SDS011;16074;42.708;23.312;2023-03-19T03:15:27;15.55;;;12.95;;
787;SDS011;16074;42.708;23.312;2023-03-19T03:17:57;18.52;;;14.32;;
787;SDS011;16074;42.708;23.312;2023-03-19T03:20:26;22.73;;;15.52;;
787;SDS011;16074;42.708;23.312;2023-03-19T03:22:54;20.92;;;15.35;;
787;SDS011;16074;42.708;23.312;2023-03-19T03:25:23;18.30;;;15.68;;
787;SDS011;16074;42.708;23.312;2023-03-19T03:27:51;18.48;;;15.38;;
787;SDS011;16074;42.708;23.312;2023-03-19T03:30:20;15.68;;;13.85;;
787;SDS011;16074;42.708;23.312;2023-03-19T03:32:48;16.42;;;13.50;;
787;SDS011;16074;42.708;23.312;2023-03-19T03:35:18;16.40;;;12.45;;
787;SDS011;16074;42.708;23.312;2023-03-19T03:37:48;22.45;;;13.55;;
787;SDS011;16074;42.708;23.312;2023-03-19T03:40:17;17.45;;;12.25;;
787;SDS011;16074;42.708;23.312;2023-03-19T03:42:46;15.90;;;14.00;;
787;SDS011;16074;42.708;23.312;2023-03-19T03:45:14;13.93;;;11.75;;
787;SDS011;16074;42.708;23.312;2023-03-19T03:47:43;15.48;;;12.65;;
787;SDS011;16074;42.708;23.312;2023-03-19T03:50:13;14.90;;;12.52;;
787;SDS011;16074;42.708;23.312;2023-03-19T03:52:44;17.45;;;12.85;;
787;SDS011;16074;42.708;23.312;2023-03-19T03:55:13;14.00;;;12.60;;
787;SDS011;16074;42.708;23.312;2023-03-19T03:57:42;16.73;;;11.73;;
787;SDS011;16074;42.708;23.312;2023-03-19T04:00:10;10.90;;;9.40;;
787;SDS011;16074;42.708;23.312;2023-03-19T04:02:39;13.68;;;9.98;;
787;SDS011;16074;42.708;23.312;2023-03-19T04:05:12;13.98;;;10.15;;
787;SDS011;16074;42.708;23.312;2023-03-19T04:07:41;12.18;;;9.52;;
787;SDS011;16074;42.708;23.312;2023-03-19T04:10:10;12.13;;;9.80;;
787;SDS011;16074;42.708;23.312;2023-03-19T04:12:39;11.50;;;9.48;;
787;SDS011;16074;42.708;23.312;2023-03-19T04:15:08;10.52;;;9.35;;
787;SDS011;16074;42.708;23.312;2023-03-19T04:17:40;11.13;;;9.70;;
787;SDS011;16074;42.708;23.312;2023-03-19T04:20:09;12.55;;;10.38;;
787;SDS011;16074;42.708;23.312;2023-03-19T04:22:38;11.98;;;9.32;;
787;SDS011;16074;42.708;23.312;2023-03-19T04:25:06;13.75;;;11.13;;
787;SDS011;16074;42.708;23.312;2023-03-19T04:27:38;19.08;;;10.60;;
787;SDS011;16074;42.708;23.312;2023-03-19T04:30:08;17.63;;;11.25;;
787;SDS011;16074;42.708;23.312;2023-03-19T04:32:38;14.85;;;11.75;;
787;SDS011;16074;42.708;23.312;2023-03-19T04:35:07;13.50;;;10.82;;
787;SDS011;16074;42.708;23.312;2023-03-19T04:37:36;16.40;;;10.77;;
787;SDS011;16074;42.708;23.312;2023-03-19T04:40:05;14.10;;;11.10;;
787;SDS011;16074;42.708;23.312;2023-03-19T04:42:36;11.43;;;9.45;;
787;SDS011;16074;42.708;23.312;2023-03-19T04:45:10;13.13;;;10.85;;
787;SDS011;16074;42.708;23.312;2023-03-19T04:47:40;19.48;;;12.32;;
787;SDS011;16074;42.708;23.312;2023-03-19T04:50:09;17.50;;;14.07;;
787;SDS011;16074;42.708;23.312;2023-03-19T04:52:40;16.20;;;13.27;;
787;SDS011;16074;42.708;23.312;2023-03-19T04:55:10;15.80;;;13.23;;
787;SDS011;16074;42.708;23.312;2023-03-19T04:57:56;16.92;;;13.02;;
787;SDS011;16074;42.708;23.312;2023-03-19T05:00:27;20.95;;;15.40;;
787;SDS011;16074;42.708;23.312;2023-03-19T05:02:57;16.05;;;12.35;;
787;SDS011;16074;42.708;23.312;2023-03-19T05:05:28;15.55;;;13.98;;
787;SDS011;16074;42.708;23.312;2023-03-19T05:07:57;18.30;;;13.18;;
787;SDS011;16074;42.708;23.312;2023-03-19T05:10:25;15.75;;;13.20;;
787;SDS011;16074;42.708;23.312;2023-03-19T05:12:53;19.23;;;15.38;;
787;SDS011;16074;42.708;23.312;2023-03-19T05:15:23;22.33;;;15.32;;
787;SDS011;16074;42.708;23.312;2023-03-19T05:18:01;19.42;;;14.38;;
787;SDS011;16074;42.708;23.312;2023-03-19T05:20:37;19.25;;;14.40;;
787;SDS011;16074;42.708;23.312;2023-03-19T05:23:14;19.67;;;14.45;;
787;SDS011;16074;42.708;23.312;2023-03-19T05:26:03;18.98;;;14.32;;
787;SDS011;16074;42.708;23.312;2023-03-19T05:29:05;20.50;;;15.38;;
787;SDS011;16074;42.708;23.312;2023-03-19T05:31:51;14.43;;;13.00;;
787;SDS011;16074;42.708;23.312;2023-03-19T05:34:19;17.67;;;13.75;;
787;SDS011;16074;42.708;23.312;2023-03-19T05:36:48;18.27;;;15.13;;
787;SDS011;16074;42.708;23.312;2023-03-19T05:39:17;23.15;;;17.10;;
787;SDS011;16074;42.708;23.312;2023-03-19T05:41:46;23.02;;;17.70;;
787;SDS011;16074;42.708;23.312;2023-03-19T05:44:19;21.10;;;16.05;;
787;SDS011;16074;42.708;23.312;2023-03-19T05:46:57;20.20;;;16.90;;
787;SDS011;16074;42.708;23.312;2023-03-19T05:49:29;24.88;;;19.35;;
787;SDS011;16074;42.708;23.312;2023-03-19T05:51:57;27.70;;;20.83;;
787;SDS011;16074;42.708;23.312;2023-03-19T05:54:26;32.35;;;23.02;;
787;SDS011;16074;42.708;23.312;2023-03-19T05:57:02;28.67;;;22.60;;
787;SDS011;16074;42.708;23.312;2023-03-19T05:59:43;34.65;;;26.33;;
787;SDS011;16074;42.708;23.312;2023-03-19T06:02:38;37.72;;;28.45;;
787;SDS011;16074;42.708;23.312;2023-03-19T06:05:20;39.72;;;31.10;;
787;SDS011;16074;42.708;23.312;2023-03-19T06:07:51;38.17;;;29.85;;
787;SDS011;16074;42.708;23.312;2023-03-19T06:10:26;38.97;;;30.52;;
787;SDS011;16074;42.708;23.312;2023-03-19T06:12:58;37.15;;;28.95;;
787;SDS011;16074;42.708;23.312;2023-03-19T06:15:46;34.78;;;27.15;;
787;SDS011;16074;42.708;23.312;2023-03-19T06:18:26;32.67;;;26.60;;
787;SDS011;16074;42.708;23.312;2023-03-19T06:20:54;33.10;;;24.90;;
787;SDS011;16074;42.708;23.312;2023-03-19T06:23:22;35.63;;;26.20;;
787;SDS011;16074;42.708;23.312;2023-03-19T06:25:51;33.20;;;27.05;;
787;SDS011;16074;42.708;23.312;2023-03-19T06:28:22;26.20;;;23.10;;
787;SDS011;16074;42.708;23.312;2023-03-19T06:30:52;32.75;;;23.23;;
787;SDS011;16074;42.708;23.312;2023-03-19T06:34:00;29.40;;;22.73;;
787;SDS011;16074;42.708;23.312;2023-03-19T06:36:37;19.02;;;16.88;;
787;SDS011;16074;42.708;23.312;2023-03-19T06:39:08;21.25;;;17.40;;
787;SDS011;16074;42.708;23.312;2023-03-19T06:41:37;23.15;;;17.67;;
787;SDS011;16074;42.708;23.312;2023-03-19T06:44:20;18.13;;;15.57;;
787;SDS011;16074;42.708;23.312;2023-03-19T06:46:50;21.25;;;17.38;;
787;SDS011;16074;42.708;23.312;2023-03-19T06:49:21;20.67;;;17.30;;
787;SDS011;16074;42.708;23.312;2023-03-19T06:51:49;20.83;;;17.55;;
787;SDS011;16074;42.708;23.312;2023-03-19T06:54:17;18.35;;;16.15;;
787;SDS011;16074;42.708;23.312;2023-03-19T06:56:46;19.05;;;15.60;;
787;SDS011;16074;42.708;23.312;2023-03-19T06:59:14;21.17;;;17.90;;
787;SDS011;16074;42.708;23.312;2023-03-19T07:01:43;19.42;;;16.70;;
787;SDS011;16074;42.708;23.312;2023-03-19T07:04:12;18.75;;;16.75;;
787;SDS011;16074;42.708;23.312;2023-03-19T07:06:42;18.98;;;16.63;;
787;SDS011;16074;42.708;23.312;2023-03-19T07:09:10;19.00;;;14.95;;
787;SDS011;16074;42.708;23.312;2023-03-19T07:11:38;17.42;;;15.30;;
787;SDS011;16074;42.708;23.312;2023-03-19T07:14:06;20.65;;;14.77;;
787;SDS011;16074;42.708;23.312;2023-03-19T07:16:35;22.55;;;15.80;;
787;SDS011;16074;42.708;23.312;2023-03-19T07:19:03;17.60;;;14.95;;
787;SDS011;16074;42.708;23.312;2023-03-19T07:21:31;16.55;;;14.75;;
787;SDS011;16074;42.708;23.312;2023-03-19T07:24:01;17.65;;;14.98;;
787;SDS011;16074;42.708;23.312;2023-03-19T07:26:29;15.57;;;13.70;;
787;SDS011;16074;42.708;23.312;2023-03-19T07:28:58;18.00;;;16.23;;
787;SDS011;16074;42.708;23.312;2023-03-19T07:31:26;16.73;;;14.95;;
787;SDS011;16074;42.708;23.312;2023-03-19T07:33:54;17.33;;;14.65;;
787;SDS011;16074;42.708;23.312;2023-03-19T07:36:22;17.77;;;14.93;;
787;SDS011;16074;42.708;23.312;2023-03-19T07:38:51;18.10;;;14.95;;
787;SDS011;16074;42.708;23.312;2023-03-19T07:41:20;16.58;;;13.90;;
787;SDS011;16074;42.708;23.312;2023-03-19T07:43:48;15.00;;;13.43;;
787;SDS011;16074;42.708;23.312;2023-03-19T07:46:17;15.15;;;12.55;;
787;SDS011;16074;42.708;23.312;2023-03-19T07:48:45;14.05;;;12.55;;
787;SDS011;16074;42.708;23.312;2023-03-19T07:51:13;14.68;;;13.15;;
787;SDS011;16074;42.708;23.312;2023-03-19T07:53:42;15.15;;;13.60;;
787;SDS011;16074;42.708;23.312;2023-03-19T07:56:10;14.55;;;12.98;;
787;SDS011;16074;42.708;23.312;2023-03-19T07:58:40;14.10;;;12.65;;
787;SDS011;16074;42.708;23.312;2023-03-19T08:01:08;15.50;;;14.00;;
787;SDS011;16074;42.708;23.312;2023-03-19T08:03:37;14.20;;;12.90;;
787;SDS011;16074;42.708;23.312;2023-03-19T08:06:05;17.58;;;14.68;;
787;SDS011;16074;42.708;23.312;2023-03-19T08:08:34;14.80;;;13.30;;
787;SDS011;16074;42.708;23.312;2023-03-19T08:11:02;14.50;;;12.95;;
787;SDS011;16074;42.708;23.312;2023-03-19T08:13:32;13.25;;;11.95;;
787;SDS011;16074;42.708;23.312;2023-03-19T08:16:02;14.25;;;12.93;;
787;SDS011;16074;42.708;23.312;2023-03-19T08:18:30;15.80;;;13.52;;
787;SDS011;16074;42.708;23.312;2023-03-19T08:20:59;14.98;;;13.55;;
787;SDS011;16074;42.708;23.312;2023-03-19T08:23:27;12.57;;;11.57;;
787;SDS011;16074;42.708;23.312;2023-03-19T08:25:56;15.10;;;12.40;;
787;SDS011;16074;42.708;23.312;2023-03-19T08:28:24;10.23;;;9.43;;
787;SDS011;16074;42.708;23.312;2023-03-19T08:30:53;10.93;;;9.93;;
787;SDS011;16074;42.708;23.312;2023-03-19T08:33:23;10.20;;;9.17;;
787;SDS011;16074;42.708;23.312;2023-03-19T08:35:52;11.20;;;10.10;;
787;SDS011;16074;42.708;23.312;2023-03-19T08:38:20;13.87;;;12.40;;
787;SDS011;16074;42.708;23.312;2023-03-19T08:40:48;14.70;;;12.90;;
787;SDS011;16074;42.708;23.312;2023-03-19T08:43:16;15.27;;;13.43;;
787;SDS011;16074;42.708;23.312;2023-03-19T08:45:45;14.37;;;12.83;;
787;SDS011;16074;42.708;23.312;2023-03-19T08:48:13;15.47;;;13.97;;
787;SDS011;16074;42.708;23.312;2023-03-19T08:50:43;14.97;;;13.60;;
787;SDS011;16074;42.708;23.312;2023-03-19T08:53:11;13.93;;;12.63;;
787;SDS011;16074;42.708;23.312;2023-03-19T08:55:39;13.43;;;12.10;;
787;SDS011;16074;42.708;23.312;2023-03-19T08:58:09;14.53;;;13.00;;
787;SDS011;16074;42.708;23.312;2023-03-19T09:00:37;14.77;;;13.33;;
787;SDS011;16074;42.708;23.312;2023-03-19T09:03:06;14.90;;;13.40;;
787;SDS011;16074;42.708;23.312;2023-03-19T09:05:34;14.30;;;12.97;;
787;SDS011;16074;42.708;23.312;2023-03-19T09:08:04;15.90;;;14.47;;
787;SDS011;16074;42.708;23.312;2023-03-19T09:10:32;15.20;;;13.60;;
787;SDS011;16074;42.708;23.312;2023-03-19T09:13:01;13.60;;;12.13;;
787;SDS011;16074;42.708;23.312;2023-03-19T09:15:30;13.70;;;12.40;;
787;SDS011;16074;42.708;23.312;2023-03-19T09:17:59;11.50;;;10.40;;
787;SDS011;16074;42.708;23.312;2023-03-19T09:20:27;12.60;;;11.13;;
787;SDS011;16074;42.708;23.312;2023-03-19T09:22:55;11.40;;;10.40;;
787;SDS011;16074;42.708;23.312;2023-03-19T09:25:25;13.37;;;12.17;;
787;SDS011;16074;42.708;23.312;2023-03-19T09:27:53;14.70;;;13.17;;
787;SDS011;16074;42.708;23.312;2023-03-19T09:30:21;16.77;;;15.10;;
787;SDS011;16074;42.708;23.312;2023-03-19T09:32:49;15.73;;;13.40;;
787;SDS011;16074;42.708;23.312;2023-03-19T09:35:18;13.00;;;11.70;;
787;SDS011;16074;42.708;23.312;2023-03-19T09:37:46;13.50;;;12.30;;
787;SDS011;16074;42.708;23.312;2023-03-19T09:40:19;14.70;;;11.27;;
787;SDS011;16074;42.708;23.312;2023-03-19T09:42:54;9.07;;;8.37;;
787;SDS011;16074;42.708;23.312;2023-03-19T09:45:29;11.67;;;10.50;;
787;SDS011;16074;42.708;23.312;2023-03-19T09:47:59;12.23;;;11.10;;
787;SDS011;16074;42.708;23.312;2023-03-19T09:50:33;12.87;;;11.53;;
787;SDS011;16074;42.708;23.312;2023-03-19T09:53:04;12.40;;;11.30;;
787;SDS011;16074;42.708;23.312;2023-03-19T09:55:40;12.40;;;10.80;;
787;SDS011;16074;42.708;23.312;2023-03-19T09:58:14;11.67;;;10.53;;
787;SDS011;16074;42.708;23.312;2023-03-19T10:00:45;11.67;;;10.60;;
787;SDS011;16074;42.708;23.312;2023-03-19T10:03:25;11.33;;;10.33;;
787;SDS011;16074;42.708;23.312;2023-03-19T10:06:06;9.40;;;8.60;;
787;SDS011;16074;42.708;23.312;2023-03-19T10:11:44;9.73;;;8.83;;
787;SDS011;16074;42.708;23.312;2023-03-19T10:14:33;9.90;;;8.90;;
787;SDS011;16074;42.708;23.312;2023-03-19T10:17:14;8.60;;;7.87;;
787;SDS011;16074;42.708;23.312;2023-03-19T10:19:46;10.40;;;9.50;;
787;SDS011;16074;42.708;23.312;2023-03-19T10:22:22;9.60;;;8.80;;
787;SDS011;16074;42.708;23.312;2023-03-19T10:24:55;9.30;;;8.40;;
787;SDS011;16074;42.708;23.312;2023-03-19T10:27:25;9.83;;;9.03;;
787;SDS011;16074;42.708;23.312;2023-03-19T10:29:56;9.27;;;8.50;;
787;SDS011;16074;42.708;23.312;2023-03-19T10:32:27;9.77;;;8.90;;
787;SDS011;16074;42.708;23.312;2023-03-19T10:35:04;9.73;;;8.93;;
787;SDS011;16074;42.708;23.312;2023-03-19T10:37:37;9.03;;;8.23;;
787;SDS011;16074;42.708;23.312;2023-03-19T10:40:05;8.27;;;7.60;;
787;SDS011;16074;42.708;23.312;2023-03-19T10:42:46;9.43;;;8.37;;
787;SDS011;16074;42.708;23.312;2023-03-19T10:45:25;8.80;;;8.10;;
787;SDS011;16074;42.708;23.312;2023-03-19T10:47:55;8.37;;;7.40;;
787;SDS011;16074;42.708;23.312;2023-03-19T10:50:27;10.77;;;8.67;;
787;SDS011;16074;42.708;23.312;2023-03-19T10:53:02;8.30;;;7.60;;
787;SDS011;16074;42.708;23.312;2023-03-19T10:55:33;9.30;;;8.40;;
787;SDS011;16074;42.708;23.312;2023-03-19T10:58:03;9.37;;;8.57;;
787;SDS011;16074;42.708;23.312;2023-03-19T11:00:34;9.67;;;8.77;;
787;SDS011;16074;42.708;23.312;2023-03-19T11:03:03;8.10;;;7.47;;
787;SDS011;16074;42.708;23.312;2023-03-19T11:05:32;8.27;;;7.57;;
787;SDS011;16074;42.708;23.312;2023-03-19T11:08:02;7.67;;;7.07;;
787;SDS011;16074;42.708;23.312;2023-03-19T11:10:32;7.30;;;6.60;;
787;SDS011;16074;42.708;23.312;2023-03-19T11:13:03;7.10;;;6.40;;
787;SDS011;16074;42.708;23.312;2023-03-19T11:15:35;9.93;;;7.73;;
787;SDS011;16074;42.708;23.312;2023-03-19T11:18:06;8.10;;;7.43;;
787;SDS011;16074;42.708;23.312;2023-03-19T11:20:42;7.93;;;7.23;;
787;SDS011;16074;42.708;23.312;2023-03-19T11:23:16;8.40;;;7.60;;
787;SDS011;16074;42.708;23.312;2023-03-19T11:25:46;8.10;;;7.50;;
787;SDS011;16074;42.708;23.312;2023-03-19T11:28:18;8.07;;;7.23;;
787;SDS011;16074;42.708;23.312;2023-03-19T11:30:55;8.93;;;8.13;;
787;SDS011;16074;42.708;23.312;2023-03-19T11:36:19;9.37;;;8.47;;
787;SDS011;16074;42.708;23.312;2023-03-19T11:38:56;8.47;;;7.73;;
787;SDS011;16074;42.708;23.312;2023-03-19T11:41:34;10.40;;;8.30;;
787;SDS011;16074;42.708;23.312;2023-03-19T11:44:14;9.03;;;8.23;;
787;SDS011;16074;42.708;23.312;2023-03-19T11:46:48;9.77;;;8.83;;
787;SDS011;16074;42.708;23.312;2023-03-19T11:49:26;8.70;;;8.00;;
787;SDS011;16074;42.708;23.312;2023-03-19T11:52:10;9.90;;;8.97;;
787;SDS011;16074;42.708;23.312;2023-03-19T11:54:47;9.00;;;8.20;;
787;SDS011;16074;42.708;23.312;2023-03-19T11:57:26;10.30;;;9.40;;
787;SDS011;16074;42.708;23.312;2023-03-19T12:00:15;10.17;;;9.00;;
787;SDS011;16074;42.708;23.312;2023-03-19T12:05:58;14.37;;;9.30;;
787;SDS011;16074;42.708;23.312;2023-03-19T12:08:29;9.40;;;8.30;;
787;SDS011;16074;42.708;23.312;2023-03-19T12:11:15;10.27;;;9.43;;
787;SDS011;16074;42.708;23.312;2023-03-19T12:14:06;14.60;;;9.80;;
787;SDS011;16074;42.708;23.312;2023-03-19T12:16:48;9.97;;;8.70;;
787;SDS011;16074;42.708;23.312;2023-03-19T12:19:37;8.73;;;8.00;;
787;SDS011;16074;42.708;23.312;2023-03-19T12:22:34;11.10;;;8.83;;
787;SDS011;16074;42.708;23.312;2023-03-19T12:25:18;9.17;;;8.47;;
787;SDS011;16074;42.708;23.312;2023-03-19T12:27:56;8.37;;;7.77;;
787;SDS011;16074;42.708;23.312;2023-03-19T12:30:36;9.37;;;8.47;;
787;SDS011;16074;42.708;23.312;2023-03-19T12:33:09;9.13;;;8.13;;
787;SDS011;16074;42.708;23.312;2023-03-19T12:35:47;8.30;;;7.60;;
787;SDS011;16074;42.708;23.312;2023-03-19T12:38:22;9.97;;;9.07;;
787;SDS011;16074;42.708;23.312;2023-03-19T12:40:55;8.90;;;7.50;;
787;SDS011;16074;42.708;23.312;2023-03-19T12:43:29;9.40;;;8.50;;
787;SDS011;16074;42.708;23.312;2023-03-19T12:46:02;7.30;;;6.53;;
787;SDS011;16074;42.708;23.312;2023-03-19T12:48:37;8.53;;;7.00;;
787;SDS011;16074;42.708;23.312;2023-03-19T12:51:10;8.23;;;7.50;;
787;SDS011;16074;42.708;23.312;2023-03-19T12:53:44;8.40;;;7.70;;
787;SDS011;16074;42.708;23.312;2023-03-19T12:56:16;12.37;;;8.20;;
787;SDS011;16074;42.708;23.312;2023-03-19T12:58:53;8.83;;;8.13;;
787;SDS011;16074;42.708;23.312;2023-03-19T13:01:28;6.93;;;6.33;;
787;SDS011;16074;42.708;23.312;2023-03-19T13:04:02;8.10;;;7.30;;
787;SDS011;16074;42.708;23.312;2023-03-19T13:06:36;8.07;;;7.30;;
787;SDS011;16074;42.708;23.312;2023-03-19T13:09:11;7.20;;;6.60;;
787;SDS011;16074;42.708;23.312;2023-03-19T13:11:44;7.10;;;6.50;;
787;SDS011;16074;42.708;23.312;2023-03-19T13:14:17;7.07;;;6.17;;
787;SDS011;16074;42.708;23.312;2023-03-19T13:16:54;6.13;;;5.73;;
787;SDS011;16074;42.708;23.312;2023-03-19T13:19:29;10.20;;;9.27;;
787;SDS011;16074;42.708;23.312;2023-03-19T13:22:02;6.50;;;5.90;;
787;SDS011;16074;42.708;23.312;2023-03-19T13:24:37;6.70;;;6.10;;
787;SDS011;16074;42.708;23.312;2023-03-19T13:27:10;6.43;;;5.93;;
787;SDS011;16074;42.708;23.312;2023-03-19T13:29:52;5.70;;;5.30;;
787;SDS011;16074;42.708;23.312;2023-03-19T13:32:28;5.80;;;5.30;;
787;SDS011;16074;42.708;23.312;2023-03-19T13:35:08;5.00;;;4.60;;
787;SDS011;16074;42.708;23.312;2023-03-19T13:37:47;5.37;;;4.97;;
787;SDS011;16074;42.708;23.312;2023-03-19T13:40:37;5.70;;;5.30;;
787;SDS011;16074;42.708;23.312;2023-03-19T13:55:18;5.90;;;5.40;;
787;SDS011;16074;42.708;23.312;2023-03-19T13:58:01;5.97;;;5.40;;
787;SDS011;16074;42.708;23.312;2023-03-19T14:00:56;5.20;;;4.90;;
787;SDS011;16074;42.708;23.312;2023-03-19T14:03:26;6.37;;;5.77;;
787;SDS011;16074;42.708;23.312;2023-03-19T14:05:57;6.30;;;5.70;;
787;SDS011;16074;42.708;23.312;2023-03-19T14:08:28;9.73;;;6.43;;
787;SDS011;16074;42.708;23.312;2023-03-19T14:11:01;5.90;;;5.37;;
787;SDS011;16074;42.708;23.312;2023-03-19T14:13:33;5.70;;;5.30;;
787;SDS011;16074;42.708;23.312;2023-03-19T14:16:08;5.83;;;5.17;;
787;SDS011;16074;42.708;23.312;2023-03-19T14:18:42;6.13;;;5.30;;
787;SDS011;16074;42.708;23.312;2023-03-19T14:21:13;6.00;;;5.60;;
787;SDS011;16074;42.708;23.312;2023-03-19T14:23:51;6.57;;;6.10;;
787;SDS011;16074;42.708;23.312;2023-03-19T14:26:23;6.40;;;5.80;;
787;SDS011;16074;42.708;23.312;2023-03-19T14:28:57;7.77;;;6.97;;
787;SDS011;16074;42.708;23.312;2023-03-19T14:31:29;6.63;;;5.50;;
787;SDS011;16074;42.708;23.312;2023-03-19T14:34:01;10.23;;;6.07;;
787;SDS011;16074;42.708;23.312;2023-03-19T14:36:34;5.30;;;5.00;;
787;SDS011;16074;42.708;23.312;2023-03-19T14:39:06;5.40;;;4.90;;
787;SDS011;16074;42.708;23.312;2023-03-19T14:41:42;5.90;;;5.40;;
787;SDS011;16074;42.708;23.312;2023-03-19T14:50:32;7.13;;;6.50;;
787;SDS011;16074;42.708;23.312;2023-03-19T14:53:09;8.20;;;7.50;;
787;SDS011;16074;42.708;23.312;2023-03-19T14:55:46;7.13;;;6.43;;
787;SDS011;16074;42.708;23.312;2023-03-19T14:58:18;7.40;;;6.13;;
787;SDS011;16074;42.708;23.312;2023-03-19T15:00:47;7.27;;;6.63;;
787;SDS011;16074;42.708;23.312;2023-03-19T15:03:20;7.87;;;7.07;;
787;SDS011;16074;42.708;23.312;2023-03-19T15:05:55;8.33;;;7.60;;
787;SDS011;16074;42.708;23.312;2023-03-19T15:08:25;9.77;;;6.90;;
787;SDS011;16074;42.708;23.312;2023-03-19T15:10:59;9.20;;;6.80;;
787;SDS011;16074;42.708;23.312;2023-03-19T15:13:44;8.90;;;8.10;;
787;SDS011;16074;42.708;23.312;2023-03-19T15:16:32;7.90;;;7.20;;
787;SDS011;16074;42.708;23.312;2023-03-19T15:19:10;8.63;;;7.37;;
787;SDS011;16074;42.708;23.312;2023-03-19T15:21:39;6.67;;;6.17;;
787;SDS011;16074;42.708;23.312;2023-03-19T15:24:12;7.03;;;6.40;;
787;SDS011;16074;42.708;23.312;2023-03-19T15:26:43;6.87;;;6.30;;
787;SDS011;16074;42.708;23.312;2023-03-19T15:29:12;6.67;;;6.17;;
787;SDS011;16074;42.708;23.312;2023-03-19T15:31:45;7.07;;;6.23;;
787;SDS011;16074;42.708;23.312;2023-03-19T15:34:30;7.50;;;6.80;;
787;SDS011;16074;42.708;23.312;2023-03-19T15:36:59;7.23;;;6.53;;
787;SDS011;16074;42.708;23.312;2023-03-19T15:39:31;6.77;;;6.07;;
787;SDS011;16074;42.708;23.312;2023-03-19T15:42:03;6.90;;;6.30;;